createdAt,value
2019-04-10T00:04:39.038Z,22.00
2019-04-10T00:09:43.373Z,22.00
2019-04-10T00:14:47.173Z,22.00
2019-04-10T00:19:51.839Z,22.00
2019-04-10T00:24:56.604Z,22.00
2019-04-10T00:30:01.478Z,22.10
2019-04-10T00:35:06.375Z,22.00
2019-04-10T00:40:10.962Z,22.00
2019-04-10T00:45:15.441Z,22.00
2019-04-10T00:50:20.142Z,22.00
2019-04-10T00:55:24.041Z,22.00
2019-04-10T01:00:28.721Z,22.00
2019-04-10T01:05:33.340Z,22.00
2019-04-10T01:10:37.249Z,22.00
2019-04-10T01:15:42.858Z,22.00
2019-04-10T01:20:46.242Z,22.00
2019-04-10T01:25:50.534Z,22.00
2019-04-10T01:30:54.932Z,22.00
2019-04-10T01:35:58.768Z,22.00
2019-04-10T01:41:03.553Z,22.00
2019-04-10T01:46:08.381Z,22.00
2019-04-10T01:51:12.344Z,22.00
2019-04-10T01:56:25.079Z,22.00
2019-04-10T02:01:29.596Z,22.00
2019-04-10T02:06:33.656Z,22.00
2019-04-10T02:11:38.226Z,22.00
2019-04-10T02:16:41.876Z,22.00
2019-04-10T02:21:47.764Z,21.90
2019-04-10T02:26:51.948Z,21.90
2019-04-10T02:31:57.373Z,21.90
2019-04-10T02:37:02.516Z,21.90
2019-04-10T02:42:08.118Z,21.90
2019-04-10T02:47:12.989Z,21.90
2019-04-10T02:52:17.537Z,21.90
2019-04-10T02:57:21.565Z,21.90
2019-04-10T03:02:26.588Z,21.90
2019-04-10T03:07:31.991Z,21.90
2019-04-10T03:12:36.418Z,21.90
2019-04-10T03:17:40.470Z,21.90
2019-04-10T03:22:45.077Z,22.00
2019-04-10T03:27:48.940Z,21.90
2019-04-10T03:33:19.029Z,21.90
2019-04-10T03:38:19.469Z,21.90
2019-04-10T03:43:23.105Z,21.90
2019-04-10T03:48:27.252Z,21.90
2019-04-10T03:53:31.980Z,21.90
2019-04-10T03:58:35.842Z,21.90
2019-04-10T04:03:40.485Z,21.90
2019-04-10T04:08:44.365Z,21.90
2019-04-10T04:13:48.104Z,21.90
2019-04-10T04:18:51.808Z,21.90
2019-04-10T04:23:55.476Z,21.90
2019-04-10T04:28:59.929Z,21.90
2019-04-10T04:34:04.070Z,21.90
2019-04-10T04:39:21.111Z,21.90
2019-04-10T04:44:14.618Z,21.90
2019-04-10T04:49:18.569Z,21.90
2019-04-10T04:54:23.276Z,21.90
2019-04-10T04:59:28.115Z,21.90
2019-04-10T05:04:32.670Z,21.90
2019-04-10T05:09:39.333Z,21.90
2019-04-10T05:14:43.983Z,21.90
2019-04-10T05:19:47.803Z,21.90
2019-04-10T05:24:52.336Z,21.90
2019-04-10T05:29:56.217Z,21.90
2019-04-10T05:35:01.194Z,21.90
2019-04-10T05:40:06.257Z,21.90
2019-04-10T05:45:09.933Z,21.90
2019-04-10T05:50:14.989Z,21.90
2019-04-10T05:55:18.841Z,21.90
2019-04-10T06:00:23.203Z,21.80
2019-04-10T06:05:26.937Z,21.80
2019-04-10T06:10:32.228Z,21.80
2019-04-10T06:15:37.234Z,21.80
2019-04-10T06:20:41.808Z,21.80
2019-04-10T06:25:47.730Z,21.80
2019-04-10T06:30:54.401Z,21.80
2019-04-10T06:35:57.838Z,21.80
2019-04-10T06:41:02.145Z,21.80
2019-04-10T06:46:06.441Z,21.90
2019-04-10T06:51:12.929Z,21.80
2019-04-10T06:56:16.805Z,21.90
2019-04-10T07:01:23.210Z,21.90
2019-04-10T07:06:46.247Z,21.90
2019-04-10T07:11:32.743Z,21.90
2019-04-10T07:16:37.312Z,21.90
2019-04-10T07:21:41.185Z,21.90
2019-04-10T07:26:47.726Z,21.90
2019-04-10T07:31:50.876Z,21.90
2019-04-10T07:36:55.980Z,21.90
2019-04-10T07:42:00.089Z,21.90
2019-04-10T07:47:04.765Z,21.90
2019-04-10T07:52:08.576Z,21.90
2019-04-10T07:57:13.924Z,21.90
2019-04-10T08:02:17.641Z,21.90
2019-04-10T08:07:29.863Z,22.00
2019-04-10T08:12:37.624Z,21.90
2019-04-10T08:17:32.526Z,22.00
2019-04-10T08:22:37.166Z,21.90
2019-04-10T08:27:41.789Z,21.90
2019-04-10T08:32:53.310Z,21.90
2019-04-10T08:37:51.387Z,21.90
2019-04-10T08:42:56.249Z,21.90
2019-04-10T08:48:00.034Z,21.90
2019-04-10T08:53:04.080Z,22.00
2019-04-10T08:58:08.321Z,22.00
2019-04-10T09:03:12.918Z,22.00
2019-04-10T09:08:17.188Z,22.00
2019-04-10T09:13:22.115Z,22.00
2019-04-10T09:18:25.923Z,22.00
2019-04-10T09:23:37.851Z,22.00
2019-04-10T09:28:35.284Z,22.00
2019-04-10T09:33:39.118Z,22.00
2019-04-10T09:38:43.905Z,22.00
2019-04-10T09:43:48.128Z,22.00
2019-04-10T09:48:52.062Z,22.00
2019-04-10T09:53:55.998Z,22.00
2019-04-10T09:59:00.811Z,22.00
2019-04-10T10:04:04.768Z,22.00
2019-04-10T10:09:08.748Z,22.00
2019-04-10T10:14:12.598Z,22.00
2019-04-10T10:19:16.588Z,22.00
2019-04-10T10:24:20.440Z,22.00
2019-04-10T10:29:24.268Z,22.00
2019-04-10T10:34:28.331Z,22.00
2019-04-10T10:39:32.801Z,22.00
2019-04-10T10:44:36.680Z,22.00
2019-04-10T10:49:42.349Z,22.00
2019-04-10T10:54:47.273Z,22.00
2019-04-10T10:59:51.505Z,22.00
2019-04-10T11:04:55.825Z,22.10
2019-04-10T11:10:01.454Z,22.10
2019-04-10T11:15:05.903Z,22.20
2019-04-10T11:20:10.303Z,21.40
2019-04-10T11:25:15.588Z,21.80
2019-04-10T11:30:20.609Z,21.90
2019-04-10T11:35:26.349Z,22.00
2019-04-10T11:40:31.800Z,22.00
2019-04-10T11:45:43.105Z,22.00
2019-04-10T11:50:43.837Z,22.00
2019-04-10T11:55:51.012Z,22.00
2019-04-10T12:00:56.064Z,22.00
2019-04-10T12:05:59.749Z,22.00
2019-04-10T12:16:09.271Z,22.10
2019-04-10T12:21:15.666Z,22.10
2019-04-10T12:26:20.021Z,22.10
2019-04-10T12:31:26.006Z,22.10
2019-04-10T12:36:30.981Z,22.10
2019-04-10T12:41:35.245Z,22.10
2019-04-10T12:46:39.532Z,22.10
2019-04-10T12:52:02.663Z,22.10
2019-04-10T12:57:06.547Z,22.10
2019-04-10T13:02:10.911Z,22.10
2019-04-10T13:07:16.946Z,22.10
2019-04-10T13:12:20.855Z,22.10
2019-04-10T13:17:24.860Z,22.00
2019-04-10T13:22:28.811Z,22.00
2019-04-10T13:27:32.728Z,21.90
2019-04-10T13:32:36.713Z,21.90
2019-04-10T13:37:41.353Z,21.90
2019-04-10T13:42:45.425Z,21.90
2019-04-10T13:47:49.644Z,21.90
2019-04-10T13:52:54.225Z,21.90
2019-04-10T13:57:59.949Z,21.90
2019-04-10T14:03:03.996Z,21.90
2019-04-10T14:08:10.328Z,21.90
2019-04-10T14:13:15.627Z,21.90
2019-04-10T14:18:19.745Z,21.90
2019-04-10T14:23:28.873Z,21.90
2019-04-10T14:28:33.386Z,21.90
2019-04-10T14:33:37.959Z,21.90
2019-04-10T14:38:41.974Z,21.90
2019-04-10T14:43:46.718Z,21.90
2019-04-10T14:48:50.550Z,21.90
2019-04-10T14:53:55.317Z,22.00
2019-04-10T14:58:59.597Z,21.90
2019-04-10T15:04:04.676Z,21.90
2019-04-10T15:09:22.169Z,21.90
2019-04-10T15:14:21.630Z,21.90
2019-04-10T15:19:26.768Z,21.90
2019-04-10T15:24:31.223Z,21.90
2019-04-10T15:29:35.016Z,21.90
2019-04-10T15:34:39.624Z,21.90
2019-04-10T15:39:44.825Z,21.90
2019-04-10T15:44:48.754Z,21.90
2019-04-10T15:49:53.526Z,21.90
2019-04-10T15:54:57.522Z,21.90
2019-04-10T16:00:01.394Z,21.90
2019-04-10T16:05:06.986Z,21.90
2019-04-10T16:10:37.195Z,21.90
2019-04-10T16:15:42.892Z,21.90
2019-04-10T16:20:47.396Z,21.90
2019-04-10T16:25:54.580Z,21.90
2019-04-10T16:30:59.273Z,21.90
2019-04-10T16:36:03.280Z,21.90
2019-04-10T16:41:08.246Z,21.90
2019-04-10T16:46:13.264Z,21.90
2019-04-10T16:51:17.648Z,21.90
2019-04-10T16:56:23.385Z,21.80
2019-04-10T17:01:27.563Z,21.80
2019-04-10T17:06:32.377Z,21.80
2019-04-10T17:11:36.896Z,21.80
2019-04-10T17:16:41.947Z,21.80
2019-04-10T17:21:46.780Z,21.90
2019-04-10T17:26:51.013Z,21.80
2019-04-10T17:31:55.126Z,21.80
2019-04-10T17:36:59.231Z,21.80
2019-04-10T17:42:04.059Z,21.80
2019-04-10T17:47:09.783Z,21.90
2019-04-10T17:52:14.545Z,21.80
2019-04-10T17:57:19.071Z,21.80
2019-04-10T18:02:23.413Z,21.80
2019-04-10T18:07:28.490Z,21.80
2019-04-10T18:12:32.249Z,21.80
2019-04-10T18:17:36.136Z,21.80
2019-04-10T18:22:40.109Z,21.80
2019-04-10T18:27:44.846Z,21.80
2019-04-10T18:32:49.869Z,21.80
2019-04-10T18:37:55.102Z,21.80
2019-04-10T18:43:00.618Z,21.80
2019-04-10T18:48:06.106Z,21.80
2019-04-10T18:53:15.071Z,21.80
2019-04-10T18:58:23.515Z,21.80
2019-04-10T19:09:10.144Z,21.80
2019-04-10T19:14:09.103Z,21.80
2019-04-10T19:19:14.215Z,21.80
2019-04-10T19:24:19.711Z,21.80
2019-04-10T19:29:24.055Z,21.80
2019-04-10T19:34:27.923Z,21.80
2019-04-10T19:39:32.238Z,21.80
2019-04-10T19:44:37.322Z,21.90
2019-04-10T19:49:41.359Z,21.80
2019-04-10T19:54:45.228Z,21.80
2019-04-10T19:59:50.030Z,21.80
2019-04-10T20:04:55.471Z,21.80
2019-04-10T20:09:59.682Z,21.80
2019-04-10T20:15:04.439Z,21.80
2019-04-10T20:20:08.495Z,21.70
2019-04-10T20:25:12.469Z,21.80
2019-04-10T20:30:17.456Z,21.70
2019-04-10T20:35:22.344Z,21.70
2019-04-10T20:40:27.579Z,21.70
2019-04-10T20:45:31.837Z,21.70
2019-04-10T20:50:36.271Z,21.70
2019-04-10T20:55:40.232Z,21.80
2019-04-10T21:00:44.979Z,21.90
2019-04-10T21:05:48.830Z,21.90
2019-04-10T21:10:52.541Z,21.80
2019-04-10T21:15:56.307Z,21.80
2019-04-10T21:21:00.075Z,21.80
2019-04-10T21:26:04.036Z,21.70
2019-04-10T21:31:27.160Z,21.70
2019-04-10T21:36:32.815Z,21.70
2019-04-10T21:41:36.905Z,21.70
2019-04-10T21:46:41.074Z,21.80
2019-04-10T21:51:46.066Z,21.80
2019-04-10T21:56:51.576Z,21.70
2019-04-10T22:01:55.538Z,21.70
2019-04-10T22:07:07.659Z,21.70
2019-04-10T22:12:25.868Z,21.70
2019-04-10T22:17:24.720Z,21.70
2019-04-10T22:22:28.899Z,21.70
2019-04-10T22:27:33.803Z,21.70
2019-04-10T22:32:38.773Z,21.70
2019-04-10T22:37:44.010Z,21.70
2019-04-10T22:42:49.869Z,21.60
2019-04-10T22:47:54.319Z,21.60
2019-04-10T22:52:59.239Z,21.60
2019-04-10T22:58:04.504Z,21.60
2019-04-10T23:03:08.718Z,21.60
2019-04-10T23:08:13.491Z,21.60
2019-04-10T23:13:18.122Z,21.60
2019-04-10T23:18:21.875Z,21.60
2019-04-10T23:23:25.622Z,21.60
2019-04-10T23:28:31.495Z,21.60
2019-04-10T23:33:36.469Z,21.60
2019-04-10T23:38:40.339Z,21.60
2019-04-10T23:43:44.345Z,21.60
2019-04-10T23:48:48.911Z,21.60
2019-04-10T23:53:53.106Z,21.60
2019-04-10T23:58:58.157Z,21.60
